sensor_id;sensor_type;location;lat;lon;timestamp;P1;durP1;ratioP1;P2;durP2;ratioP2
21639;SDS011;10981;45.462;10.974;2022-08-11T00:01:58;8.93;;;3.30;;
21639;SDS011;10981;45.462;10.974;2022-08-11T00:04:28;5.50;;;3.25;;
21639;SDS011;10981;45.462;10.974;2022-08-11T00:07:04;7.13;;;3.85;;
21639;SDS011;10981;45.462;10.974;2022-08-11T00:09:36;6.65;;;3.22;;
21639;SDS011;10981;45.462;10.974;2022-08-11T00:12:16;5.70;;;2.95;;
21639;SDS011;10981;45.462;10.974;2022-08-11T00:14:44;6.35;;;4.35;;
21639;SDS011;10981;45.462;10.974;2022-08-11T00:17:21;7.10;;;3.45;;
21639;SDS011;10981;45.462;10.974;2022-08-11T00:19:59;3.53;;;3.17;;
21639;SDS011;10981;45.462;10.974;2022-08-11T00:22:43;10.85;;;3.25;;
21639;SDS011;10981;45.462;10.974;2022-08-11T00:25:14;8.02;;;2.97;;
21639;SDS011;10981;45.462;10.974;2022-08-11T00:27:45;5.65;;;2.92;;
21639;SDS011;10981;45.462;10.974;2022-08-11T00:30:14;7.78;;;3.00;;
21639;SDS011;10981;45.462;10.974;2022-08-11T00:32:45;6.40;;;3.08;;
21639;SDS011;10981;45.462;10.974;2022-08-11T00:35:23;5.35;;;2.85;;
21639;SDS011;10981;45.462;10.974;2022-08-11T00:38:15;4.05;;;3.17;;
21639;SDS011;10981;45.462;10.974;2022-08-11T00:49:38;9.55;;;3.90;;
21639;SDS011;10981;45.462;10.974;2022-08-11T00:52:43;7.15;;;3.20;;
21639;SDS011;10981;45.462;10.974;2022-08-11T01:39:06;8.35;;;2.92;;
21639;SDS011;10981;45.462;10.974;2022-08-11T01:45:05;4.97;;;3.17;;
21639;SDS011;10981;45.462;10.974;2022-08-11T01:51:02;3.38;;;2.20;;
21639;SDS011;10981;45.462;10.974;2022-08-11T01:56:32;3.75;;;2.22;;
21639;SDS011;10981;45.462;10.974;2022-08-11T01:59:23;3.65;;;2.50;;
21639;SDS011;10981;45.462;10.974;2022-08-11T02:02:05;3.28;;;2.22;;
21639;SDS011;10981;45.462;10.974;2022-08-11T02:05:06;3.92;;;1.98;;
21639;SDS011;10981;45.462;10.974;2022-08-11T02:07:54;5.00;;;2.40;;
21639;SDS011;10981;45.462;10.974;2022-08-11T02:10:45;3.42;;;1.90;;
21639;SDS011;10981;45.462;10.974;2022-08-11T02:13:47;3.45;;;2.88;;
21639;SDS011;10981;45.462;10.974;2022-08-11T02:19:49;4.47;;;2.92;;
21639;SDS011;10981;45.462;10.974;2022-08-11T02:23:02;5.82;;;2.60;;
21639;SDS011;10981;45.462;10.974;2022-08-11T02:26:22;5.40;;;3.20;;
21639;SDS011;10981;45.462;10.974;2022-08-11T02:37:58;4.05;;;2.90;;
21639;SDS011;10981;45.462;10.974;2022-08-11T02:43:40;5.40;;;3.75;;
21639;SDS011;10981;45.462;10.974;2022-08-11T02:46:19;5.07;;;3.70;;
21639;SDS011;10981;45.462;10.974;2022-08-11T02:49:25;5.13;;;3.30;;
21639;SDS011;10981;45.462;10.974;2022-08-11T02:52:46;3.70;;;3.20;;
21639;SDS011;10981;45.462;10.974;2022-08-11T02:55:46;4.68;;;3.30;;
21639;SDS011;10981;45.462;10.974;2022-08-11T03:03:54;3.22;;;2.85;;
21639;SDS011;10981;45.462;10.974;2022-08-11T03:06:38;6.80;;;3.35;;
21639;SDS011;10981;45.462;10.974;2022-08-11T03:09:24;3.58;;;2.80;;
21639;SDS011;10981;45.462;10.974;2022-08-11T03:12:15;4.82;;;3.08;;
21639;SDS011;10981;45.462;10.974;2022-08-11T03:15:11;6.10;;;3.88;;
21639;SDS011;10981;45.462;10.974;2022-08-11T03:21:10;3.72;;;3.10;;
21639;SDS011;10981;45.462;10.974;2022-08-11T03:24:19;4.20;;;2.95;;
21639;SDS011;10981;45.462;10.974;2022-08-11T03:27:13;5.90;;;3.25;;
21639;SDS011;10981;45.462;10.974;2022-08-11T03:35:53;4.68;;;3.45;;
21639;SDS011;10981;45.462;10.974;2022-08-11T03:39:06;6.13;;;3.22;;
21639;SDS011;10981;45.462;10.974;2022-08-11T03:41:37;4.78;;;3.60;;
21639;SDS011;10981;45.462;10.974;2022-08-11T03:44:37;7.75;;;3.50;;
21639;SDS011;10981;45.462;10.974;2022-08-11T03:47:24;4.30;;;3.28;;
21639;SDS011;10981;45.462;10.974;2022-08-11T03:50:25;8.40;;;3.63;;
21639;SDS011;10981;45.462;10.974;2022-08-11T04:27:42;3.80;;;2.17;;
21639;SDS011;10981;45.462;10.974;2022-08-11T04:30:16;4.47;;;1.67;;
21639;SDS011;10981;45.462;10.974;2022-08-11T04:38:37;3.67;;;2.22;;
21639;SDS011;10981;45.462;10.974;2022-08-11T04:52:44;3.75;;;1.90;;
21639;SDS011;10981;45.462;10.974;2022-08-11T05:08:40;7.10;;;3.65;;
21639;SDS011;10981;45.462;10.974;2022-08-11T05:11:47;5.25;;;3.40;;
21639;SDS011;10981;45.462;10.974;2022-08-11T05:14:51;7.95;;;3.35;;
21639;SDS011;10981;45.462;10.974;2022-08-11T05:18:00;5.25;;;3.33;;
21639;SDS011;10981;45.462;10.974;2022-08-11T05:21:02;6.82;;;3.78;;
21639;SDS011;10981;45.462;10.974;2022-08-11T05:24:02;6.40;;;3.47;;
21639;SDS011;10981;45.462;10.974;2022-08-11T05:26:55;7.03;;;3.15;;
21639;SDS011;10981;45.462;10.974;2022-08-11T05:29:54;7.20;;;3.65;;
21639;SDS011;10981;45.462;10.974;2022-08-11T05:33:11;8.73;;;3.83;;
21639;SDS011;10981;45.462;10.974;2022-08-11T05:38:55;3.88;;;3.10;;
21639;SDS011;10981;45.462;10.974;2022-08-11T05:42:04;7.25;;;3.42;;
21639;SDS011;10981;45.462;10.974;2022-08-11T05:45:10;5.88;;;3.75;;
21639;SDS011;10981;45.462;10.974;2022-08-11T05:48:19;10.23;;;3.50;;
21639;SDS011;10981;45.462;10.974;2022-08-11T05:51:06;4.47;;;3.30;;
21639;SDS011;10981;45.462;10.974;2022-08-11T05:53:57;6.00;;;3.70;;
21639;SDS011;10981;45.462;10.974;2022-08-11T05:56:55;5.25;;;3.97;;
21639;SDS011;10981;45.462;10.974;2022-08-11T05:59:26;9.20;;;3.38;;
21639;SDS011;10981;45.462;10.974;2022-08-11T06:01:59;6.80;;;4.03;;
21639;SDS011;10981;45.462;10.974;2022-08-11T06:04:29;9.20;;;4.03;;
21639;SDS011;10981;45.462;10.974;2022-08-11T06:14:49;5.25;;;3.08;;
21639;SDS011;10981;45.462;10.974;2022-08-11T06:17:27;8.27;;;4.32;;
21639;SDS011;10981;45.462;10.974;2022-08-11T06:20:06;7.78;;;3.15;;
21639;SDS011;10981;45.462;10.974;2022-08-11T06:22:43;5.57;;;3.17;;
21639;SDS011;10981;45.462;10.974;2022-08-11T06:25:19;6.68;;;2.85;;
21639;SDS011;10981;45.462;10.974;2022-08-11T06:27:47;7.13;;;2.75;;
21639;SDS011;10981;45.462;10.974;2022-08-11T06:30:40;5.82;;;2.80;;
21639;SDS011;10981;45.462;10.974;2022-08-11T06:41:19;6.60;;;3.30;;
21639;SDS011;10981;45.462;10.974;2022-08-11T06:46:41;4.05;;;2.75;;
21639;SDS011;10981;45.462;10.974;2022-08-11T06:49:14;7.72;;;3.60;;
21639;SDS011;10981;45.462;10.974;2022-08-11T06:52:07;6.03;;;3.42;;
21639;SDS011;10981;45.462;10.974;2022-08-11T06:55:00;10.77;;;4.38;;
21639;SDS011;10981;45.462;10.974;2022-08-11T06:58:01;4.07;;;3.47;;
21639;SDS011;10981;45.462;10.974;2022-08-11T07:00:49;4.32;;;2.30;;
21639;SDS011;10981;45.462;10.974;2022-08-11T07:03:23;4.05;;;1.88;;
21639;SDS011;10981;45.462;10.974;2022-08-11T07:05:59;4.15;;;1.75;;
21639;SDS011;10981;45.462;10.974;2022-08-11T07:15:07;3.95;;;1.85;;
21639;SDS011;10981;45.462;10.974;2022-08-11T07:18:20;5.75;;;2.13;;
21639;SDS011;10981;45.462;10.974;2022-08-11T07:21:11;2.83;;;1.48;;
21639;SDS011;10981;45.462;10.974;2022-08-11T07:24:31;3.10;;;1.35;;
21639;SDS011;10981;45.462;10.974;2022-08-11T07:27:35;3.25;;;1.75;;
21639;SDS011;10981;45.462;10.974;2022-08-11T07:30:28;4.20;;;1.48;;
21639;SDS011;10981;45.462;10.974;2022-08-11T07:32:59;3.67;;;2.10;;
21639;SDS011;10981;45.462;10.974;2022-08-11T07:35:35;1.98;;;1.35;;
21639;SDS011;10981;45.462;10.974;2022-08-11T07:38:13;6.57;;;1.90;;
21639;SDS011;10981;45.462;10.974;2022-08-11T07:41:09;3.78;;;1.65;;
21639;SDS011;10981;45.462;10.974;2022-08-11T07:43:39;5.45;;;2.15;;
21639;SDS011;10981;45.462;10.974;2022-08-11T07:46:10;3.45;;;1.80;;
21639;SDS011;10981;45.462;10.974;2022-08-11T07:48:57;3.60;;;2.03;;
21639;SDS011;10981;45.462;10.974;2022-08-11T07:51:47;3.92;;;1.75;;
21639;SDS011;10981;45.462;10.974;2022-08-11T07:54:34;5.50;;;1.88;;
21639;SDS011;10981;45.462;10.974;2022-08-11T07:57:04;1.77;;;1.42;;
21639;SDS011;10981;45.462;10.974;2022-08-11T08:00:14;3.63;;;1.65;;
21639;SDS011;10981;45.462;10.974;2022-08-11T08:03:03;3.28;;;1.63;;
21639;SDS011;10981;45.462;10.974;2022-08-11T08:05:51;3.15;;;1.80;;
21639;SDS011;10981;45.462;10.974;2022-08-11T08:08:58;4.38;;;1.90;;
21639;SDS011;10981;45.462;10.974;2022-08-11T08:11:46;1.65;;;1.55;;
21639;SDS011;10981;45.462;10.974;2022-08-11T08:14:37;3.78;;;1.50;;
21639;SDS011;10981;45.462;10.974;2022-08-11T08:17:27;3.97;;;1.85;;
21639;SDS011;10981;45.462;10.974;2022-08-11T08:20:46;2.17;;;1.85;;
21639;SDS011;10981;45.462;10.974;2022-08-11T08:23:20;2.45;;;1.65;;
21639;SDS011;10981;45.462;10.974;2022-08-11T08:26:02;4.20;;;1.50;;
21639;SDS011;10981;45.462;10.974;2022-08-11T08:28:53;1.92;;;1.40;;
21639;SDS011;10981;45.462;10.974;2022-08-11T08:31:43;3.67;;;1.80;;
21639;SDS011;10981;45.462;10.974;2022-08-11T08:34:16;3.33;;;1.65;;
21639;SDS011;10981;45.462;10.974;2022-08-11T08:36:48;2.05;;;1.45;;
21639;SDS011;10981;45.462;10.974;2022-08-11T08:39:20;3.10;;;1.70;;
21639;SDS011;10981;45.462;10.974;2022-08-11T08:41:55;3.20;;;1.58;;
21639;SDS011;10981;45.462;10.974;2022-08-11T08:44:24;6.75;;;1.88;;
21639;SDS011;10981;45.462;10.974;2022-08-11T08:47:06;1.70;;;1.60;;
21639;SDS011;10981;45.462;10.974;2022-08-11T08:50:02;1.92;;;1.30;;
21639;SDS011;10981;45.462;10.974;2022-08-11T08:55:11;3.33;;;1.65;;
21639;SDS011;10981;45.462;10.974;2022-08-11T08:57:47;3.80;;;1.83;;
21639;SDS011;10981;45.462;10.974;2022-08-11T09:00:18;1.90;;;1.42;;
21639;SDS011;10981;45.462;10.974;2022-08-11T09:02:49;2.80;;;1.60;;
21639;SDS011;10981;45.462;10.974;2022-08-11T09:05:19;4.57;;;2.17;;
21639;SDS011;10981;45.462;10.974;2022-08-11T09:07:49;4.57;;;1.73;;
21639;SDS011;10981;45.462;10.974;2022-08-11T09:10:22;2.80;;;1.80;;
21639;SDS011;10981;45.462;10.974;2022-08-11T09:12:52;4.95;;;1.90;;
21639;SDS011;10981;45.462;10.974;2022-08-11T09:15:21;2.88;;;1.40;;
21639;SDS011;10981;45.462;10.974;2022-08-11T09:17:51;6.68;;;1.60;;
21639;SDS011;10981;45.462;10.974;2022-08-11T09:20:29;3.45;;;1.77;;
21639;SDS011;10981;45.462;10.974;2022-08-11T09:23:05;2.55;;;1.80;;
21639;SDS011;10981;45.462;10.974;2022-08-11T09:26:12;2.83;;;1.50;;
21639;SDS011;10981;45.462;10.974;2022-08-11T09:29:00;2.03;;;1.45;;
21639;SDS011;10981;45.462;10.974;2022-08-11T09:31:30;2.00;;;1.60;;
21639;SDS011;10981;45.462;10.974;2022-08-11T09:34:07;2.95;;;1.80;;
21639;SDS011;10981;45.462;10.974;2022-08-11T09:36:37;2.47;;;1.42;;
21639;SDS011;10981;45.462;10.974;2022-08-11T09:39:27;1.67;;;1.58;;
21639;SDS011;10981;45.462;10.974;2022-08-11T09:42:15;4.50;;;1.92;;
21639;SDS011;10981;45.462;10.974;2022-08-11T09:44:50;4.07;;;1.90;;
21639;SDS011;10981;45.462;10.974;2022-08-11T09:47:21;3.63;;;1.70;;
21639;SDS011;10981;45.462;10.974;2022-08-11T09:49:53;6.45;;;1.88;;
21639;SDS011;10981;45.462;10.974;2022-08-11T09:52:28;3.45;;;1.60;;
21639;SDS011;10981;45.462;10.974;2022-08-11T09:54:58;2.85;;;1.40;;
21639;SDS011;10981;45.462;10.974;2022-08-11T09:57:27;3.58;;;1.83;;
21639;SDS011;10981;45.462;10.974;2022-08-11T10:00:15;3.25;;;1.67;;
21639;SDS011;10981;45.462;10.974;2022-08-11T10:02:47;2.20;;;2.03;;
21639;SDS011;10981;45.462;10.974;2022-08-11T10:05:17;1.85;;;1.58;;
21639;SDS011;10981;45.462;10.974;2022-08-11T10:08:06;1.67;;;1.58;;
21639;SDS011;10981;45.462;10.974;2022-08-11T10:13:09;4.30;;;1.75;;
21639;SDS011;10981;45.462;10.974;2022-08-11T10:16:03;2.55;;;1.80;;
21639;SDS011;10981;45.462;10.974;2022-08-11T10:18:46;3.60;;;1.70;;
21639;SDS011;10981;45.462;10.974;2022-08-11T10:21:27;5.70;;;1.90;;
21639;SDS011;10981;45.462;10.974;2022-08-11T10:24:06;2.53;;;1.73;;
21639;SDS011;10981;45.462;10.974;2022-08-11T10:26:55;2.25;;;1.70;;
21639;SDS011;10981;45.462;10.974;2022-08-11T10:29:30;3.88;;;1.70;;
21639;SDS011;10981;45.462;10.974;2022-08-11T10:32:22;3.10;;;2.10;;
21639;SDS011;10981;45.462;10.974;2022-08-11T10:35:30;5.80;;;1.70;;
21639;SDS011;10981;45.462;10.974;2022-08-11T10:37:59;3.20;;;1.73;;
21639;SDS011;10981;45.462;10.974;2022-08-11T10:40:36;2.55;;;2.10;;
21639;SDS011;10981;45.462;10.974;2022-08-11T10:43:07;3.92;;;1.67;;
21639;SDS011;10981;45.462;10.974;2022-08-11T10:45:59;2.47;;;1.85;;
21639;SDS011;10981;45.462;10.974;2022-08-11T10:48:56;2.63;;;1.83;;
21639;SDS011;10981;45.462;10.974;2022-08-11T10:51:27;3.70;;;1.83;;
21639;SDS011;10981;45.462;10.974;2022-08-11T10:54:22;5.45;;;1.90;;
21639;SDS011;10981;45.462;10.974;2022-08-11T10:57:10;3.20;;;1.83;;
21639;SDS011;10981;45.462;10.974;2022-08-11T10:59:59;2.40;;;2.20;;
21639;SDS011;10981;45.462;10.974;2022-08-11T11:02:28;3.15;;;1.90;;
21639;SDS011;10981;45.462;10.974;2022-08-11T11:04:58;6.28;;;2.20;;
21639;SDS011;10981;45.462;10.974;2022-08-11T11:07:36;3.20;;;2.28;;
21639;SDS011;10981;45.462;10.974;2022-08-11T11:10:26;2.33;;;1.85;;
21639;SDS011;10981;45.462;10.974;2022-08-11T11:12:58;4.35;;;1.98;;
21639;SDS011;10981;45.462;10.974;2022-08-11T11:15:45;7.57;;;2.20;;
21639;SDS011;10981;45.462;10.974;2022-08-11T11:18:33;3.88;;;2.20;;
21639;SDS011;10981;45.462;10.974;2022-08-11T11:21:04;4.00;;;2.30;;
21639;SDS011;10981;45.462;10.974;2022-08-11T11:32:15;3.17;;;2.00;;
21639;SDS011;10981;45.462;10.974;2022-08-11T11:34:59;2.63;;;1.88;;
21639;SDS011;10981;45.462;10.974;2022-08-11T11:37:37;3.65;;;2.10;;
21639;SDS011;10981;45.462;10.974;2022-08-11T11:40:26;6.03;;;2.00;;
21639;SDS011;10981;45.462;10.974;2022-08-11T11:42:58;3.05;;;2.17;;
21639;SDS011;10981;45.462;10.974;2022-08-11T11:45:28;5.93;;;1.90;;
21639;SDS011;10981;45.462;10.974;2022-08-11T11:47:57;5.97;;;2.58;;
21639;SDS011;10981;45.462;10.974;2022-08-11T11:50:30;2.70;;;2.20;;
21639;SDS011;10981;45.462;10.974;2022-08-11T11:53:06;3.03;;;2.38;;
21639;SDS011;10981;45.462;10.974;2022-08-11T11:55:41;3.47;;;2.00;;
21639;SDS011;10981;45.462;10.974;2022-08-11T11:58:10;4.25;;;2.13;;
21639;SDS011;10981;45.462;10.974;2022-08-11T12:00:58;4.53;;;2.33;;
21639;SDS011;10981;45.462;10.974;2022-08-11T12:03:42;2.40;;;2.05;;
21639;SDS011;10981;45.462;10.974;2022-08-11T12:06:16;2.33;;;1.80;;
21639;SDS011;10981;45.462;10.974;2022-08-11T12:11:20;3.55;;;2.10;;
21639;SDS011;10981;45.462;10.974;2022-08-11T12:14:09;3.45;;;1.90;;
21639;SDS011;10981;45.462;10.974;2022-08-11T12:16:40;2.97;;;1.92;;
21639;SDS011;10981;45.462;10.974;2022-08-11T12:19:11;7.75;;;2.72;;
21639;SDS011;10981;45.462;10.974;2022-08-11T12:21:43;4.55;;;2.55;;
21639;SDS011;10981;45.462;10.974;2022-08-11T12:24:31;2.92;;;1.90;;
21639;SDS011;10981;45.462;10.974;2022-08-11T12:27:20;2.50;;;1.75;;
21639;SDS011;10981;45.462;10.974;2022-08-11T12:32:28;4.47;;;1.77;;
21639;SDS011;10981;45.462;10.974;2022-08-11T12:34:59;2.65;;;2.30;;
21639;SDS011;10981;45.462;10.974;2022-08-11T12:37:31;8.80;;;2.22;;
21639;SDS011;10981;45.462;10.974;2022-08-11T12:40:09;2.83;;;2.53;;
21639;SDS011;10981;45.462;10.974;2022-08-11T12:43:23;3.15;;;2.20;;
21639;SDS011;10981;45.462;10.974;2022-08-11T12:46:32;3.40;;;2.10;;
21639;SDS011;10981;45.462;10.974;2022-08-11T12:49:11;4.15;;;2.55;;
21639;SDS011;10981;45.462;10.974;2022-08-11T12:52:01;3.60;;;1.77;;
21639;SDS011;10981;45.462;10.974;2022-08-11T12:54:49;3.10;;;1.77;;
21639;SDS011;10981;45.462;10.974;2022-08-11T12:57:34;2.70;;;2.30;;
21639;SDS011;10981;45.462;10.974;2022-08-11T13:00:31;4.75;;;2.35;;
21639;SDS011;10981;45.462;10.974;2022-08-11T13:03:19;4.55;;;2.05;;
21639;SDS011;10981;45.462;10.974;2022-08-11T13:06:06;2.05;;;1.92;;
21639;SDS011;10981;45.462;10.974;2022-08-11T13:08:35;4.70;;;2.30;;
21639;SDS011;10981;45.462;10.974;2022-08-11T13:11:06;3.17;;;2.13;;
21639;SDS011;10981;45.462;10.974;2022-08-11T13:14:14;5.38;;;2.60;;
21639;SDS011;10981;45.462;10.974;2022-08-11T13:16:43;4.38;;;2.47;;
21639;SDS011;10981;45.462;10.974;2022-08-11T13:19:31;3.63;;;1.90;;
21639;SDS011;10981;45.462;10.974;2022-08-11T13:22:00;2.60;;;2.00;;
21639;SDS011;10981;45.462;10.974;2022-08-11T13:24:33;2.55;;;2.30;;
21639;SDS011;10981;45.462;10.974;2022-08-11T13:27:03;2.95;;;2.42;;
21639;SDS011;10981;45.462;10.974;2022-08-11T13:29:32;7.03;;;2.30;;
21639;SDS011;10981;45.462;10.974;2022-08-11T13:32:02;2.67;;;1.85;;
21639;SDS011;10981;45.462;10.974;2022-08-11T13:34:30;2.20;;;2.00;;
21639;SDS011;10981;45.462;10.974;2022-08-11T13:37:01;4.28;;;2.30;;
21639;SDS011;10981;45.462;10.974;2022-08-11T13:39:31;4.03;;;2.40;;
21639;SDS011;10981;45.462;10.974;2022-08-11T13:42:03;3.40;;;2.45;;
21639;SDS011;10981;45.462;10.974;2022-08-11T13:44:33;2.75;;;2.38;;
21639;SDS011;10981;45.462;10.974;2022-08-11T13:47:05;2.28;;;2.00;;
21639;SDS011;10981;45.462;10.974;2022-08-11T13:49:35;3.05;;;2.40;;
21639;SDS011;10981;45.462;10.974;2022-08-11T13:52:10;2.13;;;1.92;;
21639;SDS011;10981;45.462;10.974;2022-08-11T13:54:40;2.50;;;2.22;;
21639;SDS011;10981;45.462;10.974;2022-08-11T13:57:13;5.85;;;2.47;;
21639;SDS011;10981;45.462;10.974;2022-08-11T14:00:05;3.30;;;2.55;;
21639;SDS011;10981;45.462;10.974;2022-08-11T14:02:54;2.78;;;2.03;;
21639;SDS011;10981;45.462;10.974;2022-08-11T14:05:25;9.10;;;2.30;;
21639;SDS011;10981;45.462;10.974;2022-08-11T14:07:59;4.15;;;3.20;;
21639;SDS011;10981;45.462;10.974;2022-08-11T14:10:29;3.13;;;2.60;;
21639;SDS011;10981;45.462;10.974;2022-08-11T14:13:11;7.20;;;2.33;;
21639;SDS011;10981;45.462;10.974;2022-08-11T14:19:14;3.13;;;2.20;;
21639;SDS011;10981;45.462;10.974;2022-08-11T14:21:44;4.07;;;2.40;;
21639;SDS011;10981;45.462;10.974;2022-08-11T14:24:39;6.07;;;2.17;;
21639;SDS011;10981;45.462;10.974;2022-08-11T14:27:10;3.20;;;2.17;;
21639;SDS011;10981;45.462;10.974;2022-08-11T14:29:59;5.78;;;2.60;;
21639;SDS011;10981;45.462;10.974;2022-08-11T14:32:28;3.28;;;2.17;;
21639;SDS011;10981;45.462;10.974;2022-08-11T14:34:57;6.05;;;2.65;;
21639;SDS011;10981;45.462;10.974;2022-08-11T14:37:26;3.97;;;2.53;;
21639;SDS011;10981;45.462;10.974;2022-08-11T14:39:58;4.75;;;2.83;;
21639;SDS011;10981;45.462;10.974;2022-08-11T14:42:48;5.25;;;2.40;;
21639;SDS011;10981;45.462;10.974;2022-08-11T14:45:35;2.63;;;2.08;;
21639;SDS011;10981;45.462;10.974;2022-08-11T14:48:24;5.85;;;2.45;;
21639;SDS011;10981;45.462;10.974;2022-08-11T14:50:53;3.55;;;2.40;;
21639;SDS011;10981;45.462;10.974;2022-08-11T14:53:24;6.07;;;3.20;;
21639;SDS011;10981;45.462;10.974;2022-08-11T14:55:52;2.35;;;2.10;;
21639;SDS011;10981;45.462;10.974;2022-08-11T14:58:40;3.63;;;2.33;;
21639;SDS011;10981;45.462;10.974;2022-08-11T15:01:12;3.65;;;2.58;;
21639;SDS011;10981;45.462;10.974;2022-08-11T15:03:59;2.88;;;2.60;;
21639;SDS011;10981;45.462;10.974;2022-08-11T15:06:47;6.75;;;2.25;;
21639;SDS011;10981;45.462;10.974;2022-08-11T15:09:16;3.42;;;2.33;;
21639;SDS011;10981;45.462;10.974;2022-08-11T15:11:45;4.15;;;2.28;;
21639;SDS011;10981;45.462;10.974;2022-08-11T15:14:52;4.32;;;2.30;;
21639;SDS011;10981;45.462;10.974;2022-08-11T15:17:39;5.30;;;2.45;;
21639;SDS011;10981;45.462;10.974;2022-08-11T15:20:11;4.85;;;3.35;;
21639;SDS011;10981;45.462;10.974;2022-08-11T15:23:00;3.67;;;2.47;;
21639;SDS011;10981;45.462;10.974;2022-08-11T15:25:58;5.28;;;2.53;;
21639;SDS011;10981;45.462;10.974;2022-08-11T15:28:41;5.40;;;2.40;;
21639;SDS011;10981;45.462;10.974;2022-08-11T15:31:30;2.90;;;2.55;;
21639;SDS011;10981;45.462;10.974;2022-08-11T15:34:19;2.55;;;2.35;;
21639;SDS011;10981;45.462;10.974;2022-08-11T15:37:11;3.55;;;2.78;;
21639;SDS011;10981;45.462;10.974;2022-08-11T15:43:37;4.05;;;2.72;;
21639;SDS011;10981;45.462;10.974;2022-08-11T15:48:58;5.32;;;2.92;;
21639;SDS011;10981;45.462;10.974;2022-08-11T15:51:35;3.10;;;2.05;;
21639;SDS011;10981;45.462;10.974;2022-08-11T15:54:28;5.88;;;2.75;;
21639;SDS011;10981;45.462;10.974;2022-08-11T15:56:59;5.70;;;2.60;;
21639;SDS011;10981;45.462;10.974;2022-08-11T15:59:30;3.15;;;2.70;;
21639;SDS011;10981;45.462;10.974;2022-08-11T16:02:19;4.80;;;2.75;;
21639;SDS011;10981;45.462;10.974;2022-08-11T16:05:13;2.90;;;2.42;;
21639;SDS011;10981;45.462;10.974;2022-08-11T16:08:04;4.80;;;2.42;;
21639;SDS011;10981;45.462;10.974;2022-08-11T16:10:35;3.83;;;2.40;;
21639;SDS011;10981;45.462;10.974;2022-08-11T16:13:06;2.30;;;2.10;;
21639;SDS011;10981;45.462;10.974;2022-08-11T16:15:41;7.85;;;2.53;;
21639;SDS011;10981;45.462;10.974;2022-08-11T16:18:33;4.15;;;2.30;;
21639;SDS011;10981;45.462;10.974;2022-08-11T16:21:09;4.53;;;2.20;;
21639;SDS011;10981;45.462;10.974;2022-08-11T16:24:02;2.40;;;2.20;;
21639;SDS011;10981;45.462;10.974;2022-08-11T16:27:01;3.17;;;2.20;;
21639;SDS011;10981;45.462;10.974;2022-08-11T16:29:42;4.93;;;2.30;;
21639;SDS011;10981;45.462;10.974;2022-08-11T16:32:20;3.15;;;2.10;;
21639;SDS011;10981;45.462;10.974;2022-08-11T16:34:51;2.60;;;2.00;;
21639;SDS011;10981;45.462;10.974;2022-08-11T16:38:02;6.13;;;2.05;;
21639;SDS011;10981;45.462;10.974;2022-08-11T16:40:51;2.70;;;1.85;;
21639;SDS011;10981;45.462;10.974;2022-08-11T16:43:21;3.75;;;1.88;;
21639;SDS011;10981;45.462;10.974;2022-08-11T16:46:10;6.45;;;2.20;;
21639;SDS011;10981;45.462;10.974;2022-08-11T16:52:19;4.30;;;1.65;;
21639;SDS011;10981;45.462;10.974;2022-08-11T16:54:48;8.75;;;2.60;;
21639;SDS011;10981;45.462;10.974;2022-08-11T16:57:23;3.55;;;1.73;;
21639;SDS011;10981;45.462;10.974;2022-08-11T17:00:11;2.90;;;1.80;;
21639;SDS011;10981;45.462;10.974;2022-08-11T17:02:46;4.80;;;1.65;;
21639;SDS011;10981;45.462;10.974;2022-08-11T17:05:40;3.05;;;1.90;;
21639;SDS011;10981;45.462;10.974;2022-08-11T17:08:35;3.10;;;1.83;;
21639;SDS011;10981;45.462;10.974;2022-08-11T17:11:30;4.18;;;1.80;;
21639;SDS011;10981;45.462;10.974;2022-08-11T17:17:15;3.47;;;1.80;;
21639;SDS011;10981;45.462;10.974;2022-08-11T17:19:51;2.55;;;2.10;;
21639;SDS011;10981;45.462;10.974;2022-08-11T17:22:47;3.17;;;2.10;;
21639;SDS011;10981;45.462;10.974;2022-08-11T17:25:39;2.40;;;1.90;;
21639;SDS011;10981;45.462;10.974;2022-08-11T17:28:29;3.70;;;1.90;;
21639;SDS011;10981;45.462;10.974;2022-08-11T17:30:59;3.70;;;2.00;;
21639;SDS011;10981;45.462;10.974;2022-08-11T17:33:49;3.45;;;2.40;;
21639;SDS011;10981;45.462;10.974;2022-08-11T17:36:37;3.70;;;1.98;;
21639;SDS011;10981;45.462;10.974;2022-08-11T17:39:11;2.88;;;1.63;;
21639;SDS011;10981;45.462;10.974;2022-08-11T17:41:42;4.05;;;1.85;;
21639;SDS011;10981;45.462;10.974;2022-08-11T17:44:30;4.00;;;1.70;;
21639;SDS011;10981;45.462;10.974;2022-08-11T17:47:22;6.88;;;2.05;;
21639;SDS011;10981;45.462;10.974;2022-08-11T17:50:10;6.65;;;2.20;;
21639;SDS011;10981;45.462;10.974;2022-08-11T17:52:58;3.25;;;1.83;;
21639;SDS011;10981;45.462;10.974;2022-08-11T17:55:47;2.75;;;1.65;;
21639;SDS011;10981;45.462;10.974;2022-08-11T17:58:35;7.38;;;1.80;;
21639;SDS011;10981;45.462;10.974;2022-08-11T18:01:42;9.10;;;2.45;;
21639;SDS011;10981;45.462;10.974;2022-08-11T18:04:17;3.47;;;1.73;;
21639;SDS011;10981;45.462;10.974;2022-08-11T18:06:48;7.07;;;2.30;;
21639;SDS011;10981;45.462;10.974;2022-08-11T18:09:19;4.10;;;1.95;;
21639;SDS011;10981;45.462;10.974;2022-08-11T18:12:07;4.85;;;2.05;;
21639;SDS011;10981;45.462;10.974;2022-08-11T18:14:56;3.42;;;2.20;;
21639;SDS011;10981;45.462;10.974;2022-08-11T18:17:45;6.75;;;2.20;;
21639;SDS011;10981;45.462;10.974;2022-08-11T18:20:32;4.70;;;1.95;;
21639;SDS011;10981;45.462;10.974;2022-08-11T18:23:21;2.47;;;1.50;;
21639;SDS011;10981;45.462;10.974;2022-08-11T18:26:14;7.40;;;2.22;;
21639;SDS011;10981;45.462;10.974;2022-08-11T18:29:06;8.07;;;2.30;;
21639;SDS011;10981;45.462;10.974;2022-08-11T18:31:54;6.68;;;3.15;;
21639;SDS011;10981;45.462;10.974;2022-08-11T18:34:51;2.88;;;2.10;;
21639;SDS011;10981;45.462;10.974;2022-08-11T18:37:42;2.88;;;1.83;;
21639;SDS011;10981;45.462;10.974;2022-08-11T18:40:33;6.72;;;1.80;;
21639;SDS011;10981;45.462;10.974;2022-08-11T18:43:21;3.50;;;2.40;;
21639;SDS011;10981;45.462;10.974;2022-08-11T18:46:10;5.35;;;1.98;;
21639;SDS011;10981;45.462;10.974;2022-08-11T18:49:09;4.20;;;2.83;;
21639;SDS011;10981;45.462;10.974;2022-08-11T18:52:22;7.10;;;2.35;;
21639;SDS011;10981;45.462;10.974;2022-08-11T18:55:13;3.13;;;1.77;;
21639;SDS011;10981;45.462;10.974;2022-08-11T18:58:05;2.75;;;2.28;;
21639;SDS011;10981;45.462;10.974;2022-08-11T19:00:55;5.10;;;2.40;;
21639;SDS011;10981;45.462;10.974;2022-08-11T19:03:45;2.90;;;2.58;;
21639;SDS011;10981;45.462;10.974;2022-08-11T19:06:37;5.07;;;2.60;;
21639;SDS011;10981;45.462;10.974;2022-08-11T19:09:26;4.30;;;1.90;;
21639;SDS011;10981;45.462;10.974;2022-08-11T19:12:14;6.03;;;2.55;;
21639;SDS011;10981;45.462;10.974;2022-08-11T19:15:03;4.63;;;2.58;;
21639;SDS011;10981;45.462;10.974;2022-08-11T19:17:51;8.88;;;2.33;;
21639;SDS011;10981;45.462;10.974;2022-08-11T19:20:39;2.85;;;2.38;;
21639;SDS011;10981;45.462;10.974;2022-08-11T19:23:31;3.58;;;2.30;;
21639;SDS011;10981;45.462;10.974;2022-08-11T19:26:21;3.22;;;2.30;;
21639;SDS011;10981;45.462;10.974;2022-08-11T19:29:08;6.93;;;2.10;;
21639;SDS011;10981;45.462;10.974;2022-08-11T19:32:16;3.05;;;2.67;;
21639;SDS011;10981;45.462;10.974;2022-08-11T19:35:05;4.22;;;2.15;;
21639;SDS011;10981;45.462;10.974;2022-08-11T19:37:53;4.38;;;2.35;;
21639;SDS011;10981;45.462;10.974;2022-08-11T19:40:43;7.65;;;2.40;;
21639;SDS011;10981;45.462;10.974;2022-08-11T19:43:31;4.22;;;2.58;;
21639;SDS011;10981;45.462;10.974;2022-08-11T19:46:20;3.08;;;1.60;;
21639;SDS011;10981;45.462;10.974;2022-08-11T19:49:09;5.10;;;1.85;;
21639;SDS011;10981;45.462;10.974;2022-08-11T19:51:57;3.88;;;2.20;;